sensor_id;sensor_type;location;lat;lon;timestamp;temperature;humidity
69359;HTU21D;56520;49.066;8.660;2023-07-13T00:00:29;18.19;71.32
69359;HTU21D;56520;49.066;8.660;2023-07-13T00:02:55;18.13;71.42
69359;HTU21D;56520;49.066;8.660;2023-07-13T00:05:22;18.08;71.50
69359;HTU21D;56520;49.066;8.660;2023-07-13T00:07:48;18.03;71.51
69359;HTU21D;56520;49.066;8.660;2023-07-13T00:10:14;18.00;71.31
69359;HTU21D;56520;49.066;8.660;2023-07-13T00:12:40;17.95;71.64
69359;HTU21D;56520;49.066;8.660;2023-07-13T00:15:16;17.89;71.78
69359;HTU21D;56520;49.066;8.660;2023-07-13T00:17:42;17.84;72.48
69359;HTU21D;56520;49.066;8.660;2023-07-13T00:20:10;17.81;72.29
69359;HTU21D;56520;49.066;8.660;2023-07-13T00:22:36;17.80;72.29
69359;HTU21D;56520;49.066;8.660;2023-07-13T00:25:01;17.78;72.21
69359;HTU21D;56520;49.066;8.660;2023-07-13T00:27:27;17.76;72.47
69359;HTU21D;56520;49.066;8.660;2023-07-13T00:29:52;17.72;72.64
69359;HTU21D;56520;49.066;8.660;2023-07-13T00:32:18;17.67;72.83
69359;HTU21D;56520;49.066;8.660;2023-07-13T00:34:43;17.63;73.01
69359;HTU21D;56520;49.066;8.660;2023-07-13T00:37:09;17.60;73.03
69359;HTU21D;56520;49.066;8.660;2023-07-13T00:39:35;17.54;73.20
69359;HTU21D;56520;49.066;8.660;2023-07-13T00:42:01;17.52;73.16
69359;HTU21D;56520;49.066;8.660;2023-07-13T00:44:27;17.45;73.19
69359;HTU21D;56520;49.066;8.660;2023-07-13T00:46:52;17.39;73.38
69359;HTU21D;56520;49.066;8.660;2023-07-13T00:49:20;17.32;73.50
69359;HTU21D;56520;49.066;8.660;2023-07-13T00:51:57;17.26;73.74
69359;HTU21D;56520;49.066;8.660;2023-07-13T00:54:44;17.22;73.90
69359;HTU21D;56520;49.066;8.660;2023-07-13T00:57:14;17.18;73.93
69359;HTU21D;56520;49.066;8.660;2023-07-13T00:59:50;17.14;74.22
69359;HTU21D;56520;49.066;8.660;2023-07-13T01:02:17;17.13;74.35
69359;HTU21D;56520;49.066;8.660;2023-07-13T01:04:43;17.11;74.28
69359;HTU21D;56520;49.066;8.660;2023-07-13T01:07:10;17.09;74.13
69359;HTU21D;56520;49.066;8.660;2023-07-13T01:09:37;17.07;74.34
69359;HTU21D;56520;49.066;8.660;2023-07-13T01:12:05;17.02;74.34
69359;HTU21D;56520;49.066;8.660;2023-07-13T01:14:31;17.01;74.48
69359;HTU21D;56520;49.066;8.660;2023-07-13T01:16:56;16.96;75.04
69359;HTU21D;56520;49.066;8.660;2023-07-13T01:22:02;16.86;74.97
69359;HTU21D;56520;49.066;8.660;2023-07-13T01:24:28;16.80;75.28
69359;HTU21D;56520;49.066;8.660;2023-07-13T01:26:54;16.75;75.51
69359;HTU21D;56520;49.066;8.660;2023-07-13T01:29:20;16.70;75.62
69359;HTU21D;56520;49.066;8.660;2023-07-13T01:31:48;16.66;75.79
69359;HTU21D;56520;49.066;8.660;2023-07-13T01:34:13;16.63;75.92
69359;HTU21D;56520;49.066;8.660;2023-07-13T01:36:39;16.57;75.73
69359;HTU21D;56520;49.066;8.660;2023-07-13T01:39:04;16.50;75.87
69359;HTU21D;56520;49.066;8.660;2023-07-13T01:41:30;16.43;76.51
69359;HTU21D;56520;49.066;8.660;2023-07-13T01:43:55;16.34;76.36
69359;HTU21D;56520;49.066;8.660;2023-07-13T01:46:20;16.31;76.39
69359;HTU21D;56520;49.066;8.660;2023-07-13T01:48:46;16.28;76.67
69359;HTU21D;56520;49.066;8.660;2023-07-13T01:51:11;16.27;76.60
69359;HTU21D;56520;49.066;8.660;2023-07-13T01:53:37;16.24;76.58
69359;HTU21D;56520;49.066;8.660;2023-07-13T01:56:02;16.21;76.80
69359;HTU21D;56520;49.066;8.660;2023-07-13T01:58:28;16.17;76.92
69359;HTU21D;56520;49.066;8.660;2023-07-13T02:00:53;16.15;77.26
69359;HTU21D;56520;49.066;8.660;2023-07-13T02:03:19;16.13;77.18
69359;HTU21D;56520;49.066;8.660;2023-07-13T02:05:45;16.11;77.15
69359;HTU21D;56520;49.066;8.660;2023-07-13T02:08:10;16.08;77.60
69359;HTU21D;56520;49.066;8.660;2023-07-13T02:10:37;16.05;77.70
69359;HTU21D;56520;49.066;8.660;2023-07-13T02:13:05;16.03;77.77
69359;HTU21D;56520;49.066;8.660;2023-07-13T02:15:31;16.02;77.95
69359;HTU21D;56520;49.066;8.660;2023-07-13T02:17:56;15.97;78.02
69359;HTU21D;56520;49.066;8.660;2023-07-13T02:20:24;15.95;77.93
69359;HTU21D;56520;49.066;8.660;2023-07-13T02:22:49;15.91;77.92
69359;HTU21D;56520;49.066;8.660;2023-07-13T02:25:15;15.84;77.94
69359;HTU21D;56520;49.066;8.660;2023-07-13T02:27:40;15.80;78.33
69359;HTU21D;56520;49.066;8.660;2023-07-13T02:30:06;15.76;78.37
69359;HTU21D;56520;49.066;8.660;2023-07-13T02:32:32;15.69;78.55
69359;HTU21D;56520;49.066;8.660;2023-07-13T02:34:59;15.60;78.85
69359;HTU21D;56520;49.066;8.660;2023-07-13T02:37:24;15.54;78.78
69359;HTU21D;56520;49.066;8.660;2023-07-13T02:39:50;15.53;78.75
69359;HTU21D;56520;49.066;8.660;2023-07-13T02:42:15;15.51;78.76
69359;HTU21D;56520;49.066;8.660;2023-07-13T02:44:41;15.51;78.86
69359;HTU21D;56520;49.066;8.660;2023-07-13T02:47:06;15.48;78.81
69359;HTU21D;56520;49.066;8.660;2023-07-13T02:49:32;15.44;78.87
69359;HTU21D;56520;49.066;8.660;2023-07-13T02:51:57;15.43;78.94
69359;HTU21D;56520;49.066;8.660;2023-07-13T02:54:22;15.40;79.03
69359;HTU21D;56520;49.066;8.660;2023-07-13T02:56:48;15.32;79.08
69359;HTU21D;56520;49.066;8.660;2023-07-13T02:59:13;15.28;79.07
69359;HTU21D;56520;49.066;8.660;2023-07-13T03:01:39;15.24;79.20
69359;HTU21D;56520;49.066;8.660;2023-07-13T03:04:05;15.17;79.21
69359;HTU21D;56520;49.066;8.660;2023-07-13T03:06:31;15.13;79.24
69359;HTU21D;56520;49.066;8.660;2023-07-13T03:08:57;15.10;79.28
69359;HTU21D;56520;49.066;8.660;2023-07-13T03:11:23;15.04;79.37
69359;HTU21D;56520;49.066;8.660;2023-07-13T03:13:48;15.02;79.42
69359;HTU21D;56520;49.066;8.660;2023-07-13T03:16:15;15.02;79.50
69359;HTU21D;56520;49.066;8.660;2023-07-13T03:18:43;14.99;79.69
69359;HTU21D;56520;49.066;8.660;2023-07-13T03:21:09;14.93;79.88
69359;HTU21D;56520;49.066;8.660;2023-07-13T03:23:35;14.89;80.33
69359;HTU21D;56520;49.066;8.660;2023-07-13T03:26:03;14.88;80.41
69359;HTU21D;56520;49.066;8.660;2023-07-13T03:28:29;14.83;80.61
69359;HTU21D;56520;49.066;8.660;2023-07-13T03:31:07;14.78;81.01
69359;HTU21D;56520;49.066;8.660;2023-07-13T03:33:33;14.73;81.10
69359;HTU21D;56520;49.066;8.660;2023-07-13T03:35:59;14.70;81.34
69359;HTU21D;56520;49.066;8.660;2023-07-13T03:38:25;14.67;81.68
69359;HTU21D;56520;49.066;8.660;2023-07-13T03:40:51;14.65;82.29
69359;HTU21D;56520;49.066;8.660;2023-07-13T03:43:17;14.63;82.20
69359;HTU21D;56520;49.066;8.660;2023-07-13T03:45:42;14.62;82.35
69359;HTU21D;56520;49.066;8.660;2023-07-13T03:48:07;14.59;82.66
69359;HTU21D;56520;49.066;8.660;2023-07-13T03:50:33;14.58;82.58
69359;HTU21D;56520;49.066;8.660;2023-07-13T03:52:59;14.58;82.92
69359;HTU21D;56520;49.066;8.660;2023-07-13T03:55:24;14.58;82.86
69359;HTU21D;56520;49.066;8.660;2023-07-13T03:57:57;14.59;82.95
69359;HTU21D;56520;49.066;8.660;2023-07-13T04:00:23;14.63;83.37
69359;HTU21D;56520;49.066;8.660;2023-07-13T04:02:48;14.66;83.79
69359;HTU21D;56520;49.066;8.660;2023-07-13T04:05:14;14.68;83.41
69359;HTU21D;56520;49.066;8.660;2023-07-13T04:07:40;14.69;83.28
69359;HTU21D;56520;49.066;8.660;2023-07-13T04:10:06;14.71;83.41
69359;HTU21D;56520;49.066;8.660;2023-07-13T04:12:31;14.73;83.22
69359;HTU21D;56520;49.066;8.660;2023-07-13T04:14:57;14.77;83.06
69359;HTU21D;56520;49.066;8.660;2023-07-13T04:17:22;14.81;83.08
69359;HTU21D;56520;49.066;8.660;2023-07-13T04:19:47;14.84;83.10
69359;HTU21D;56520;49.066;8.660;2023-07-13T04:22:14;14.88;82.82
69359;HTU21D;56520;49.066;8.660;2023-07-13T04:24:39;14.92;82.78
69359;HTU21D;56520;49.066;8.660;2023-07-13T04:27:05;14.95;82.97
69359;HTU21D;56520;49.066;8.660;2023-07-13T04:29:30;14.98;82.89
69359;HTU21D;56520;49.066;8.660;2023-07-13T04:31:56;14.98;82.78
69359;HTU21D;56520;49.066;8.660;2023-07-13T04:34:21;14.98;82.78
69359;HTU21D;56520;49.066;8.660;2023-07-13T04:36:46;15.00;83.07
69359;HTU21D;56520;49.066;8.660;2023-07-13T04:39:12;15.00;83.14
69359;HTU21D;56520;49.066;8.660;2023-07-13T04:41:37;15.02;83.11
69359;HTU21D;56520;49.066;8.660;2023-07-13T04:44:03;15.06;83.35
69359;HTU21D;56520;49.066;8.660;2023-07-13T04:46:28;15.10;83.07
69359;HTU21D;56520;49.066;8.660;2023-07-13T04:48:54;15.14;83.04
69359;HTU21D;56520;49.066;8.660;2023-07-13T04:51:19;15.17;83.16
69359;HTU21D;56520;49.066;8.660;2023-07-13T04:53:45;15.22;83.17
69359;HTU21D;56520;49.066;8.660;2023-07-13T04:56:10;15.28;83.14
69359;HTU21D;56520;49.066;8.660;2023-07-13T04:58:36;15.34;82.94
69359;HTU21D;56520;49.066;8.660;2023-07-13T05:01:03;15.41;82.77
69359;HTU21D;56520;49.066;8.660;2023-07-13T05:03:29;15.46;82.80
69359;HTU21D;56520;49.066;8.660;2023-07-13T05:06:01;15.54;82.53
69359;HTU21D;56520;49.066;8.660;2023-07-13T05:08:26;15.61;82.36
69359;HTU21D;56520;49.066;8.660;2023-07-13T05:10:52;15.68;82.08
69359;HTU21D;56520;49.066;8.660;2023-07-13T05:13:18;15.74;81.93
69359;HTU21D;56520;49.066;8.660;2023-07-13T05:15:43;15.82;81.83
69359;HTU21D;56520;49.066;8.660;2023-07-13T05:18:09;15.89;81.84
69359;HTU21D;56520;49.066;8.660;2023-07-13T05:20:34;15.98;81.76
69359;HTU21D;56520;49.066;8.660;2023-07-13T05:23:00;16.07;81.54
69359;HTU21D;56520;49.066;8.660;2023-07-13T05:25:25;16.16;81.36
69359;HTU21D;56520;49.066;8.660;2023-07-13T05:27:52;16.25;81.20
69359;HTU21D;56520;49.066;8.660;2023-07-13T05:30:17;16.32;80.77
69359;HTU21D;56520;49.066;8.660;2023-07-13T05:32:42;16.36;80.57
69359;HTU21D;56520;49.066;8.660;2023-07-13T05:35:08;16.41;80.45
69359;HTU21D;56520;49.066;8.660;2023-07-13T05:37:34;16.42;80.28
69359;HTU21D;56520;49.066;8.660;2023-07-13T05:39:59;16.46;80.10
69359;HTU21D;56520;49.066;8.660;2023-07-13T05:42:25;16.52;80.01
69359;HTU21D;56520;49.066;8.660;2023-07-13T05:44:50;16.59;80.08
69359;HTU21D;56520;49.066;8.660;2023-07-13T05:47:15;16.66;79.98
69359;HTU21D;56520;49.066;8.660;2023-07-13T05:49:41;16.72;79.85
69359;HTU21D;56520;49.066;8.660;2023-07-13T05:52:07;16.76;79.72
69359;HTU21D;56520;49.066;8.660;2023-07-13T05:54:32;16.79;79.53
69359;HTU21D;56520;49.066;8.660;2023-07-13T05:56:57;16.84;79.56
69359;HTU21D;56520;49.066;8.660;2023-07-13T05:59:23;16.87;79.62
69359;HTU21D;56520;49.066;8.660;2023-07-13T06:01:49;16.91;79.54
69359;HTU21D;56520;49.066;8.660;2023-07-13T06:04:14;16.96;79.49
69359;HTU21D;56520;49.066;8.660;2023-07-13T06:06:40;17.02;79.01
69359;HTU21D;56520;49.066;8.660;2023-07-13T06:09:05;17.08;79.16
69359;HTU21D;56520;49.066;8.660;2023-07-13T06:11:31;17.16;79.04
69359;HTU21D;56520;49.066;8.660;2023-07-13T06:13:56;17.23;78.17
69359;HTU21D;56520;49.066;8.660;2023-07-13T06:16:22;17.33;77.91
69359;HTU21D;56520;49.066;8.660;2023-07-13T06:18:48;17.48;77.24
69359;HTU21D;56520;49.066;8.660;2023-07-13T06:21:19;17.63;76.79
69359;HTU21D;56520;49.066;8.660;2023-07-13T06:23:45;17.75;76.21
69359;HTU21D;56520;49.066;8.660;2023-07-13T06:26:12;17.82;76.01
69359;HTU21D;56520;49.066;8.660;2023-07-13T06:28:38;17.92;74.97
69359;HTU21D;56520;49.066;8.660;2023-07-13T06:31:07;18.05;73.48
69359;HTU21D;56520;49.066;8.660;2023-07-13T06:33:33;18.17;73.47
69359;HTU21D;56520;49.066;8.660;2023-07-13T06:35:58;18.28;72.61
69359;HTU21D;56520;49.066;8.660;2023-07-13T06:38:24;18.38;72.53
69359;HTU21D;56520;49.066;8.660;2023-07-13T06:40:49;18.42;72.47
69359;HTU21D;56520;49.066;8.660;2023-07-13T06:43:15;18.47;71.27
69359;HTU21D;56520;49.066;8.660;2023-07-13T06:45:44;18.54;70.86
69359;HTU21D;56520;49.066;8.660;2023-07-13T06:48:15;18.57;70.93
69359;HTU21D;56520;49.066;8.660;2023-07-13T06:50:42;18.68;66.49
69359;HTU21D;56520;49.066;8.660;2023-07-13T06:53:08;18.80;65.37
69359;HTU21D;56520;49.066;8.660;2023-07-13T06:55:33;18.98;64.87
69359;HTU21D;56520;49.066;8.660;2023-07-13T06:57:59;19.16;61.99
69359;HTU21D;56520;49.066;8.660;2023-07-13T07:00:25;19.29;62.83
69359;HTU21D;56520;49.066;8.660;2023-07-13T07:02:50;19.35;62.39
69359;HTU21D;56520;49.066;8.660;2023-07-13T07:05:15;19.36;62.51
69359;HTU21D;56520;49.066;8.660;2023-07-13T07:07:41;19.38;63.29
69359;HTU21D;56520;49.066;8.660;2023-07-13T07:10:07;19.43;63.80
69359;HTU21D;56520;49.066;8.660;2023-07-13T07:12:32;19.47;64.24
69359;HTU21D;56520;49.066;8.660;2023-07-13T07:14:58;19.53;64.56
69359;HTU21D;56520;49.066;8.660;2023-07-13T07:17:23;19.60;64.22
69359;HTU21D;56520;49.066;8.660;2023-07-13T07:19:50;19.63;64.27
69359;HTU21D;56520;49.066;8.660;2023-07-13T07:22:15;19.68;64.06
69359;HTU21D;56520;49.066;8.660;2023-07-13T07:24:41;19.73;64.07
69359;HTU21D;56520;49.066;8.660;2023-07-13T07:27:06;19.84;63.68
69359;HTU21D;56520;49.066;8.660;2023-07-13T07:29:32;19.94;63.50
69359;HTU21D;56520;49.066;8.660;2023-07-13T07:31:59;20.04;62.02
69359;HTU21D;56520;49.066;8.660;2023-07-13T07:34:25;20.14;62.02
69359;HTU21D;56520;49.066;8.660;2023-07-13T07:36:50;20.22;62.28
69359;HTU21D;56520;49.066;8.660;2023-07-13T07:39:15;20.30;61.95
69359;HTU21D;56520;49.066;8.660;2023-07-13T07:41:41;20.37;61.66
69359;HTU21D;56520;49.066;8.660;2023-07-13T07:44:08;20.50;60.34
69359;HTU21D;56520;49.066;8.660;2023-07-13T07:46:35;20.57;59.89
69359;HTU21D;56520;49.066;8.660;2023-07-13T07:49:00;20.63;59.16
69359;HTU21D;56520;49.066;8.660;2023-07-13T07:51:26;20.77;57.10
69359;HTU21D;56520;49.066;8.660;2023-07-13T07:53:51;20.87;57.68
69359;HTU21D;56520;49.066;8.660;2023-07-13T07:56:17;20.87;57.65
69359;HTU21D;56520;49.066;8.660;2023-07-13T07:58:42;20.91;56.64
69359;HTU21D;56520;49.066;8.660;2023-07-13T08:01:08;21.01;55.47
69359;HTU21D;56520;49.066;8.660;2023-07-13T08:03:34;21.08;55.83
69359;HTU21D;56520;49.066;8.660;2023-07-13T08:06:00;21.20;55.38
69359;HTU21D;56520;49.066;8.660;2023-07-13T08:08:25;21.29;55.32
69359;HTU21D;56520;49.066;8.660;2023-07-13T08:10:51;21.33;54.88
69359;HTU21D;56520;49.066;8.660;2023-07-13T08:13:17;21.42;55.03
69359;HTU21D;56520;49.066;8.660;2023-07-13T08:15:42;21.52;53.23
69359;HTU21D;56520;49.066;8.660;2023-07-13T08:18:08;21.63;53.02
69359;HTU21D;56520;49.066;8.660;2023-07-13T08:20:37;21.74;52.88
69359;HTU21D;56520;49.066;8.660;2023-07-13T08:23:03;21.82;52.31
69359;HTU21D;56520;49.066;8.660;2023-07-13T08:25:29;21.93;51.88
69359;HTU21D;56520;49.066;8.660;2023-07-13T08:27:54;22.04;51.61
69359;HTU21D;56520;49.066;8.660;2023-07-13T08:30:19;22.10;52.01
69359;HTU21D;56520;49.066;8.660;2023-07-13T08:32:45;22.13;51.50
69359;HTU21D;56520;49.066;8.660;2023-07-13T08:35:10;22.21;50.50
69359;HTU21D;56520;49.066;8.660;2023-07-13T08:37:36;22.36;49.82
69359;HTU21D;56520;49.066;8.660;2023-07-13T08:40:01;22.49;50.15
69359;HTU21D;56520;49.066;8.660;2023-07-13T08:42:39;22.58;50.25
69359;HTU21D;56520;49.066;8.660;2023-07-13T08:45:23;22.71;50.92
69359;HTU21D;56520;49.066;8.660;2023-07-13T08:48:04;22.84;50.40
69359;HTU21D;56520;49.066;8.660;2023-07-13T08:50:33;22.88;49.67
69359;HTU21D;56520;49.066;8.660;2023-07-13T08:53:02;22.97;49.94
69359;HTU21D;56520;49.066;8.660;2023-07-13T08:55:31;23.10;49.93
69359;HTU21D;56520;49.066;8.660;2023-07-13T08:58:15;23.31;49.63
69359;HTU21D;56520;49.066;8.660;2023-07-13T09:01:15;23.41;48.20
69359;HTU21D;56520;49.066;8.660;2023-07-13T09:03:59;23.75;46.09
69359;HTU21D;56520;49.066;8.660;2023-07-13T09:06:34;24.06;45.98
69359;HTU21D;56520;49.066;8.660;2023-07-13T09:09:14;24.20;46.33
69359;HTU21D;56520;49.066;8.660;2023-07-13T09:11:53;24.26;45.36
69359;HTU21D;56520;49.066;8.660;2023-07-13T09:17:05;24.50;44.31
69359;HTU21D;56520;49.066;8.660;2023-07-13T09:19:32;24.61;44.51
69359;HTU21D;56520;49.066;8.660;2023-07-13T09:21:59;24.72;44.42
69359;HTU21D;56520;49.066;8.660;2023-07-13T09:24:34;24.89;44.28
69359;HTU21D;56520;49.066;8.660;2023-07-13T09:27:02;25.20;41.46
69359;HTU21D;56520;49.066;8.660;2023-07-13T09:29:33;25.46;40.02
69359;HTU21D;56520;49.066;8.660;2023-07-13T09:32:03;25.63;39.62
69359;HTU21D;56520;49.066;8.660;2023-07-13T09:34:29;25.68;41.49
69359;HTU21D;56520;49.066;8.660;2023-07-13T09:36:58;25.93;38.33
69359;HTU21D;56520;49.066;8.660;2023-07-13T09:39:27;25.97;38.24
69359;HTU21D;56520;49.066;8.660;2023-07-13T09:44:36;26.23;37.46
69359;HTU21D;56520;49.066;8.660;2023-07-13T09:47:02;26.36;37.58
69359;HTU21D;56520;49.066;8.660;2023-07-13T09:49:35;26.19;38.31
69359;HTU21D;56520;49.066;8.660;2023-07-13T09:52:09;26.22;37.99
69359;HTU21D;56520;49.066;8.660;2023-07-13T09:54:36;26.23;39.06
69359;HTU21D;56520;49.066;8.660;2023-07-13T09:57:08;26.27;37.54
69359;HTU21D;56520;49.066;8.660;2023-07-13T09:59:41;26.28;37.38
69359;HTU21D;56520;49.066;8.660;2023-07-13T10:02:40;26.37;37.74
69359;HTU21D;56520;49.066;8.660;2023-07-13T10:05:13;26.70;37.32
69359;HTU21D;56520;49.066;8.660;2023-07-13T10:07:43;27.09;36.55
69359;HTU21D;56520;49.066;8.660;2023-07-13T10:10:20;27.30;36.84
69359;HTU21D;56520;49.066;8.660;2023-07-13T10:12:46;27.40;35.78
69359;HTU21D;56520;49.066;8.660;2023-07-13T10:15:18;27.66;35.01
69359;HTU21D;56520;49.066;8.660;2023-07-13T10:17:45;27.61;34.79
69359;HTU21D;56520;49.066;8.660;2023-07-13T10:20:10;27.56;34.89
69359;HTU21D;56520;49.066;8.660;2023-07-13T10:22:58;27.72;33.96
69359;HTU21D;56520;49.066;8.660;2023-07-13T10:25:27;27.85;34.77
69359;HTU21D;56520;49.066;8.660;2023-07-13T10:28:03;28.04;34.03
69359;HTU21D;56520;49.066;8.660;2023-07-13T10:30:34;28.17;34.39
69359;HTU21D;56520;49.066;8.660;2023-07-13T10:33:02;28.33;31.85
69359;HTU21D;56520;49.066;8.660;2023-07-13T10:35:30;28.27;31.10
69359;HTU21D;56520;49.066;8.660;2023-07-13T10:40:34;28.37;30.83
69359;HTU21D;56520;49.066;8.660;2023-07-13T10:43:02;28.30;31.45
69359;HTU21D;56520;49.066;8.660;2023-07-13T10:45:33;28.19;31.70
69359;HTU21D;56520;49.066;8.660;2023-07-13T10:47:59;28.28;32.78
69359;HTU21D;56520;49.066;8.660;2023-07-13T10:50:28;28.53;33.21
69359;HTU21D;56520;49.066;8.660;2023-07-13T10:53:01;28.70;33.65
69359;HTU21D;56520;49.066;8.660;2023-07-13T11:01:08;28.59;30.74
69359;HTU21D;56520;49.066;8.660;2023-07-13T11:03:46;28.55;30.93
69359;HTU21D;56520;49.066;8.660;2023-07-13T11:08:58;28.30;31.12
69359;HTU21D;56520;49.066;8.660;2023-07-13T11:19:25;28.05;31.88
69359;HTU21D;56520;49.066;8.660;2023-07-13T11:27:43;28.83;29.61
69359;HTU21D;56520;49.066;8.660;2023-07-13T11:30:35;28.76;30.51
69359;HTU21D;56520;49.066;8.660;2023-07-13T11:35:33;28.42;32.31
69359;HTU21D;56520;49.066;8.660;2023-07-13T11:38:00;28.19;32.57
69359;HTU21D;56520;49.066;8.660;2023-07-13T11:40:27;27.85;33.15
69359;HTU21D;56520;49.066;8.660;2023-07-13T11:43:01;27.76;32.99
69359;HTU21D;56520;49.066;8.660;2023-07-13T11:45:27;27.63;33.37
69359;HTU21D;56520;49.066;8.660;2023-07-13T11:47:53;27.78;34.18
69359;HTU21D;56520;49.066;8.660;2023-07-13T11:50:23;28.15;33.30
69359;HTU21D;56520;49.066;8.660;2023-07-13T11:52:50;28.20;31.52
69359;HTU21D;56520;49.066;8.660;2023-07-13T11:55:20;28.00;32.31
69359;HTU21D;56520;49.066;8.660;2023-07-13T12:00:22;27.38;34.67
69359;HTU21D;56520;49.066;8.660;2023-07-13T12:02:48;27.38;34.86
69359;HTU21D;56520;49.066;8.660;2023-07-13T12:05:16;27.52;35.41
69359;HTU21D;56520;49.066;8.660;2023-07-13T12:07:43;27.55;35.43
69359;HTU21D;56520;49.066;8.660;2023-07-13T12:12:35;27.83;36.08
69359;HTU21D;56520;49.066;8.660;2023-07-13T12:15:05;28.05;34.20
69359;HTU21D;56520;49.066;8.660;2023-07-13T12:17:31;28.33;33.85
69359;HTU21D;56520;49.066;8.660;2023-07-13T12:19:56;28.48;32.44
69359;HTU21D;56520;49.066;8.660;2023-07-13T12:22:22;28.69;32.83
69359;HTU21D;56520;49.066;8.660;2023-07-13T12:24:48;28.80;32.11
69359;HTU21D;56520;49.066;8.660;2023-07-13T12:27:25;28.82;31.75
69359;HTU21D;56520;49.066;8.660;2023-07-13T12:32:19;28.64;32.00
69359;HTU21D;56520;49.066;8.660;2023-07-13T12:35:12;28.23;31.72
69359;HTU21D;56520;49.066;8.660;2023-07-13T12:37:41;27.88;31.87
69359;HTU21D;56520;49.066;8.660;2023-07-13T12:40:14;27.81;32.79
69359;HTU21D;56520;49.066;8.660;2023-07-13T12:42:40;27.68;33.23
69359;HTU21D;56520;49.066;8.660;2023-07-13T12:45:16;27.56;33.99
69359;HTU21D;56520;49.066;8.660;2023-07-13T12:47:44;27.40;34.44
69359;HTU21D;56520;49.066;8.660;2023-07-13T12:50:16;27.20;34.72
69359;HTU21D;56520;49.066;8.660;2023-07-13T12:52:43;26.96;33.63
69359;HTU21D;56520;49.066;8.660;2023-07-13T12:55:18;26.87;33.84
69359;HTU21D;56520;49.066;8.660;2023-07-13T12:57:55;27.30;33.32
69359;HTU21D;56520;49.066;8.660;2023-07-13T13:00:33;27.74;35.09
69359;HTU21D;56520;49.066;8.660;2023-07-13T13:03:05;28.01;33.95
69359;HTU21D;56520;49.066;8.660;2023-07-13T13:05:32;27.97;33.64
69359;HTU21D;56520;49.066;8.660;2023-07-13T13:07:58;27.89;33.60
69359;HTU21D;56520;49.066;8.660;2023-07-13T13:10:23;27.71;32.96
69359;HTU21D;56520;49.066;8.660;2023-07-13T13:12:50;27.44;34.37
69359;HTU21D;56520;49.066;8.660;2023-07-13T13:15:15;27.17;33.54
69359;HTU21D;56520;49.066;8.660;2023-07-13T13:17:42;26.83;33.89
69359;HTU21D;56520;49.066;8.660;2023-07-13T13:20:18;26.56;34.67
69359;HTU21D;56520;49.066;8.660;2023-07-13T13:22:44;26.53;35.01
69359;HTU21D;56520;49.066;8.660;2023-07-13T13:25:11;26.46;35.14
69359;HTU21D;56520;49.066;8.660;2023-07-13T13:27:36;26.40;35.59
69359;HTU21D;56520;49.066;8.660;2023-07-13T13:30:02;26.42;35.63
69359;HTU21D;56520;49.066;8.660;2023-07-13T13:32:28;26.39;35.36
69359;HTU21D;56520;49.066;8.660;2023-07-13T13:34:53;26.70;35.24
69359;HTU21D;56520;49.066;8.660;2023-07-13T13:37:21;27.15;34.18
69359;HTU21D;56520;49.066;8.660;2023-07-13T13:39:47;27.31;33.64
69359;HTU21D;56520;49.066;8.660;2023-07-13T13:42:13;27.63;33.73
69359;HTU21D;56520;49.066;8.660;2023-07-13T13:44:39;27.99;32.14
69359;HTU21D;56520;49.066;8.660;2023-07-13T13:47:20;28.16;31.21
69359;HTU21D;56520;49.066;8.660;2023-07-13T13:49:47;28.40;30.87
69359;HTU21D;56520;49.066;8.660;2023-07-13T13:52:12;28.39;29.65
69359;HTU21D;56520;49.066;8.660;2023-07-13T13:54:38;28.01;30.53
69359;HTU21D;56520;49.066;8.660;2023-07-13T13:57:03;27.99;31.45
69359;HTU21D;56520;49.066;8.660;2023-07-13T13:59:30;28.26;30.67
69359;HTU21D;56520;49.066;8.660;2023-07-13T14:01:57;28.48;29.99
69359;HTU21D;56520;49.066;8.660;2023-07-13T14:04:25;28.35;30.00
69359;HTU21D;56520;49.066;8.660;2023-07-13T14:06:50;28.34;30.09
69359;HTU21D;56520;49.066;8.660;2023-07-13T14:09:18;28.54;30.54
69359;HTU21D;56520;49.066;8.660;2023-07-13T14:11:46;28.76;30.09
69359;HTU21D;56520;49.066;8.660;2023-07-13T14:14:18;28.65;29.88
69359;HTU21D;56520;49.066;8.660;2023-07-13T14:16:44;28.58;30.02
69359;HTU21D;56520;49.066;8.660;2023-07-13T14:19:12;28.56;30.22
69359;HTU21D;56520;49.066;8.660;2023-07-13T14:21:39;28.55;28.91
69359;HTU21D;56520;49.066;8.660;2023-07-13T14:24:05;28.60;28.96
69359;HTU21D;56520;49.066;8.660;2023-07-13T14:26:35;28.58;29.76
69359;HTU21D;56520;49.066;8.660;2023-07-13T14:29:01;28.62;29.63
69359;HTU21D;56520;49.066;8.660;2023-07-13T14:31:27;28.69;28.34
69359;HTU21D;56520;49.066;8.660;2023-07-13T14:33:56;28.57;28.75
69359;HTU21D;56520;49.066;8.660;2023-07-13T14:36:29;28.46;29.47
69359;HTU21D;56520;49.066;8.660;2023-07-13T14:38:57;28.41;28.97
69359;HTU21D;56520;49.066;8.660;2023-07-13T14:41:22;28.39;30.02
69359;HTU21D;56520;49.066;8.660;2023-07-13T14:43:48;28.69;27.78
69359;HTU21D;56520;49.066;8.660;2023-07-13T14:46:34;28.74;28.24
69359;HTU21D;56520;49.066;8.660;2023-07-13T14:49:43;28.82;28.64
69359;HTU21D;56520;49.066;8.660;2023-07-13T14:51:48;28.74;28.90
69359;HTU21D;56520;49.066;8.660;2023-07-13T14:54:14;28.56;29.68
69359;HTU21D;56520;49.066;8.660;2023-07-13T14:56:39;28.55;29.70
69359;HTU21D;56520;49.066;8.660;2023-07-13T14:59:05;28.54;30.13
69359;HTU21D;56520;49.066;8.660;2023-07-13T15:01:32;28.49;31.06
69359;HTU21D;56520;49.066;8.660;2023-07-13T15:03:58;28.53;30.77
69359;HTU21D;56520;49.066;8.660;2023-07-13T15:06:23;28.56;30.06
69359;HTU21D;56520;49.066;8.660;2023-07-13T15:08:49;28.53;29.51
69359;HTU21D;56520;49.066;8.660;2023-07-13T15:11:15;28.38;29.83
69359;HTU21D;56520;49.066;8.660;2023-07-13T15:13:41;28.24;30.04
69359;HTU21D;56520;49.066;8.660;2023-07-13T15:16:16;28.11;30.66
69359;HTU21D;56520;49.066;8.660;2023-07-13T15:18:43;27.93;30.74
69359;HTU21D;56520;49.066;8.660;2023-07-13T15:21:11;27.82;31.06
69359;HTU21D;56520;49.066;8.660;2023-07-13T15:23:40;27.82;31.18
69359;HTU21D;56520;49.066;8.660;2023-07-13T15:26:05;27.87;30.51
69359;HTU21D;56520;49.066;8.660;2023-07-13T15:28:32;27.74;30.67
69359;HTU21D;56520;49.066;8.660;2023-07-13T15:30:59;27.71;31.38
69359;HTU21D;56520;49.066;8.660;2023-07-13T15:33:27;27.82;31.15
69359;HTU21D;56520;49.066;8.660;2023-07-13T15:35:54;27.95;30.57
69359;HTU21D;56520;49.066;8.660;2023-07-13T15:38:23;27.95;30.35
69359;HTU21D;56520;49.066;8.660;2023-07-13T15:40:49;28.11;30.82
69359;HTU21D;56520;49.066;8.660;2023-07-13T15:43:17;28.64;29.61
69359;HTU21D;56520;49.066;8.660;2023-07-13T15:45:43;28.73;29.83
69359;HTU21D;56520;49.066;8.660;2023-07-13T15:48:17;28.64;30.16
69359;HTU21D;56520;49.066;8.660;2023-07-13T15:50:53;28.32;30.35
69359;HTU21D;56520;49.066;8.660;2023-07-13T15:53:29;27.88;31.03
69359;HTU21D;56520;49.066;8.660;2023-07-13T15:55:55;27.69;31.77
69359;HTU21D;56520;49.066;8.660;2023-07-13T15:58:21;27.58;31.86
69359;HTU21D;56520;49.066;8.660;2023-07-13T16:00:46;27.56;32.01